sensor_id;sensor_type;location;lat;lon;timestamp;temperature;humidity
4520;DHT22;2272;49.226;8.108;2023-04-01T00:00:33;9.60;99.90
4520;DHT22;2272;49.226;8.108;2023-04-01T00:03:00;9.60;99.90
4520;DHT22;2272;49.226;8.108;2023-04-01T00:05:26;9.60;99.90
4520;DHT22;2272;49.226;8.108;2023-04-01T00:07:53;9.50;99.90
4520;DHT22;2272;49.226;8.108;2023-04-01T00:10:20;9.50;99.90
4520;DHT22;2272;49.226;8.108;2023-04-01T00:12:47;9.50;99.90
4520;DHT22;2272;49.226;8.108;2023-04-01T00:15:15;9.60;99.90
4520;DHT22;2272;49.226;8.108;2023-04-01T00:17:42;9.70;99.90
4520;DHT22;2272;49.226;8.108;2023-04-01T00:20:10;9.60;99.90
4520;DHT22;2272;49.226;8.108;2023-04-01T00:22:36;9.60;99.90
4520;DHT22;2272;49.226;8.108;2023-04-01T00:25:04;9.50;99.90
4520;DHT22;2272;49.226;8.108;2023-04-01T00:27:31;9.50;99.90
4520;DHT22;2272;49.226;8.108;2023-04-01T00:30:00;9.50;99.90
4520;DHT22;2272;49.226;8.108;2023-04-01T00:32:32;9.50;99.90
4520;DHT22;2272;49.226;8.108;2023-04-01T00:34:59;9.50;99.90
4520;DHT22;2272;49.226;8.108;2023-04-01T00:37:26;9.50;99.90
4520;DHT22;2272;49.226;8.108;2023-04-01T00:39:56;9.60;99.90
4520;DHT22;2272;49.226;8.108;2023-04-01T00:42:23;9.50;99.90
4520;DHT22;2272;49.226;8.108;2023-04-01T00:44:52;9.50;99.90
4520;DHT22;2272;49.226;8.108;2023-04-01T00:47:19;9.50;99.90
4520;DHT22;2272;49.226;8.108;2023-04-01T00:49:51;9.50;99.90
4520;DHT22;2272;49.226;8.108;2023-04-01T00:52:21;9.50;99.90
4520;DHT22;2272;49.226;8.108;2023-04-01T00:54:52;9.60;99.90
4520;DHT22;2272;49.226;8.108;2023-04-01T00:57:25;9.50;99.90
4520;DHT22;2272;49.226;8.108;2023-04-01T00:59:54;9.50;99.90
4520;DHT22;2272;49.226;8.108;2023-04-01T01:02:22;9.50;99.90
4520;DHT22;2272;49.226;8.108;2023-04-01T01:04:52;9.50;99.90
4520;DHT22;2272;49.226;8.108;2023-04-01T01:07:25;9.50;99.90
4520;DHT22;2272;49.226;8.108;2023-04-01T01:10:02;9.50;99.90
4520;DHT22;2272;49.226;8.108;2023-04-01T01:12:34;9.60;99.90
4520;DHT22;2272;49.226;8.108;2023-04-01T01:15:07;9.60;99.90
4520;DHT22;2272;49.226;8.108;2023-04-01T01:17:45;9.60;99.90
4520;DHT22;2272;49.226;8.108;2023-04-01T01:20:31;9.60;99.90
4520;DHT22;2272;49.226;8.108;2023-04-01T01:23:22;9.60;99.90
4520;DHT22;2272;49.226;8.108;2023-04-01T01:25:59;9.70;99.90
4520;DHT22;2272;49.226;8.108;2023-04-01T01:28:44;9.70;99.90
4520;DHT22;2272;49.226;8.108;2023-04-01T01:31:20;9.70;99.90
4520;DHT22;2272;49.226;8.108;2023-04-01T01:33:58;9.70;99.90
4520;DHT22;2272;49.226;8.108;2023-04-01T01:36:32;9.70;99.90
4520;DHT22;2272;49.226;8.108;2023-04-01T01:39:01;9.70;99.90
4520;DHT22;2272;49.226;8.108;2023-04-01T01:41:29;9.70;99.90
4520;DHT22;2272;49.226;8.108;2023-04-01T01:43:57;9.70;99.90
4520;DHT22;2272;49.226;8.108;2023-04-01T01:46:27;9.70;99.90
4520;DHT22;2272;49.226;8.108;2023-04-01T01:48:55;9.70;99.90
4520;DHT22;2272;49.226;8.108;2023-04-01T01:51:24;9.70;99.90
4520;DHT22;2272;49.226;8.108;2023-04-01T01:53:54;9.70;99.90
4520;DHT22;2272;49.226;8.108;2023-04-01T01:56:23;9.60;99.90
4520;DHT22;2272;49.226;8.108;2023-04-01T01:58:55;9.60;99.90
4520;DHT22;2272;49.226;8.108;2023-04-01T02:01:24;9.60;99.90
4520;DHT22;2272;49.226;8.108;2023-04-01T02:03:53;9.50;99.90
4520;DHT22;2272;49.226;8.108;2023-04-01T02:06:22;9.50;99.90
4520;DHT22;2272;49.226;8.108;2023-04-01T02:08:52;9.40;99.90
4520;DHT22;2272;49.226;8.108;2023-04-01T02:11:25;9.40;99.90
4520;DHT22;2272;49.226;8.108;2023-04-01T02:13:54;9.30;99.90
4520;DHT22;2272;49.226;8.108;2023-04-01T02:16:25;9.30;99.90
4520;DHT22;2272;49.226;8.108;2023-04-01T02:18:55;9.30;99.90
4520;DHT22;2272;49.226;8.108;2023-04-01T02:21:26;9.30;99.90
4520;DHT22;2272;49.226;8.108;2023-04-01T02:23:54;9.30;99.90
4520;DHT22;2272;49.226;8.108;2023-04-01T02:26:24;9.30;99.90
4520;DHT22;2272;49.226;8.108;2023-04-01T02:28:53;9.30;99.90
4520;DHT22;2272;49.226;8.108;2023-04-01T02:31:21;9.20;99.90
4520;DHT22;2272;49.226;8.108;2023-04-01T02:33:52;9.20;99.90
4520;DHT22;2272;49.226;8.108;2023-04-01T02:36:18;9.20;99.90
4520;DHT22;2272;49.226;8.108;2023-04-01T02:38:46;9.10;99.90
4520;DHT22;2272;49.226;8.108;2023-04-01T02:41:15;9.10;99.90
4520;DHT22;2272;49.226;8.108;2023-04-01T02:43:43;9.10;99.90
4520;DHT22;2272;49.226;8.108;2023-04-01T02:46:10;9.00;99.90
4520;DHT22;2272;49.226;8.108;2023-04-01T02:48:36;9.10;99.90
4520;DHT22;2272;49.226;8.108;2023-04-01T02:51:03;9.00;99.90
4520;DHT22;2272;49.226;8.108;2023-04-01T02:53:30;9.00;99.90
4520;DHT22;2272;49.226;8.108;2023-04-01T02:55:56;9.00;99.90
4520;DHT22;2272;49.226;8.108;2023-04-01T02:58:23;9.00;99.90
4520;DHT22;2272;49.226;8.108;2023-04-01T03:00:51;9.00;99.90
4520;DHT22;2272;49.226;8.108;2023-04-01T03:03:18;9.00;99.90
4520;DHT22;2272;49.226;8.108;2023-04-01T03:05:45;9.00;99.90
4520;DHT22;2272;49.226;8.108;2023-04-01T03:08:11;9.00;99.90
4520;DHT22;2272;49.226;8.108;2023-04-01T03:10:38;9.00;99.90
4520;DHT22;2272;49.226;8.108;2023-04-01T03:13:05;9.00;99.90
4520;DHT22;2272;49.226;8.108;2023-04-01T03:15:32;9.00;99.90
4520;DHT22;2272;49.226;8.108;2023-04-01T03:18:00;9.00;99.90
4520;DHT22;2272;49.226;8.108;2023-04-01T03:20:27;9.00;99.90
4520;DHT22;2272;49.226;8.108;2023-04-01T03:22:53;9.00;99.90
4520;DHT22;2272;49.226;8.108;2023-04-01T03:25:20;9.00;99.90
4520;DHT22;2272;49.226;8.108;2023-04-01T03:27:47;9.00;99.90
4520;DHT22;2272;49.226;8.108;2023-04-01T03:30:14;9.00;99.90
4520;DHT22;2272;49.226;8.108;2023-04-01T03:32:40;9.10;99.90
4520;DHT22;2272;49.226;8.108;2023-04-01T03:35:08;9.10;99.90
4520;DHT22;2272;49.226;8.108;2023-04-01T03:37:36;9.10;99.90
4520;DHT22;2272;49.226;8.108;2023-04-01T03:40:03;9.10;99.90
4520;DHT22;2272;49.226;8.108;2023-04-01T03:42:30;9.00;99.90
4520;DHT22;2272;49.226;8.108;2023-04-01T03:44:57;9.10;99.90
4520;DHT22;2272;49.226;8.108;2023-04-01T03:47:24;9.00;99.90
4520;DHT22;2272;49.226;8.108;2023-04-01T03:49:51;9.00;99.90
4520;DHT22;2272;49.226;8.108;2023-04-01T03:52:19;9.00;99.90
4520;DHT22;2272;49.226;8.108;2023-04-01T03:54:45;9.00;99.90
4520;DHT22;2272;49.226;8.108;2023-04-01T03:57:12;8.90;99.90
4520;DHT22;2272;49.226;8.108;2023-04-01T03:59:39;8.80;99.90
4520;DHT22;2272;49.226;8.108;2023-04-01T04:02:06;8.80;99.90
4520;DHT22;2272;49.226;8.108;2023-04-01T04:04:32;8.80;99.90
4520;DHT22;2272;49.226;8.108;2023-04-01T04:07:00;8.90;99.90
4520;DHT22;2272;49.226;8.108;2023-04-01T04:09:29;8.80;99.90
4520;DHT22;2272;49.226;8.108;2023-04-01T04:11:56;8.80;99.90
4520;DHT22;2272;49.226;8.108;2023-04-01T04:14:23;8.80;99.90
4520;DHT22;2272;49.226;8.108;2023-04-01T04:16:50;8.80;99.90
4520;DHT22;2272;49.226;8.108;2023-04-01T04:19:16;8.80;99.90
4520;DHT22;2272;49.226;8.108;2023-04-01T04:21:43;8.80;99.90
4520;DHT22;2272;49.226;8.108;2023-04-01T04:24:10;8.80;99.90
4520;DHT22;2272;49.226;8.108;2023-04-01T04:26:38;8.80;99.90
4520;DHT22;2272;49.226;8.108;2023-04-01T04:29:04;8.80;99.90
4520;DHT22;2272;49.226;8.108;2023-04-01T04:31:31;8.80;99.90
4520;DHT22;2272;49.226;8.108;2023-04-01T04:33:59;8.80;99.90
4520;DHT22;2272;49.226;8.108;2023-04-01T04:36:26;8.80;99.90
4520;DHT22;2272;49.226;8.108;2023-04-01T04:38:53;8.90;99.90
4520;DHT22;2272;49.226;8.108;2023-04-01T04:41:20;8.90;99.90
4520;DHT22;2272;49.226;8.108;2023-04-01T04:43:51;8.90;99.90
4520;DHT22;2272;49.226;8.108;2023-04-01T04:46:18;8.90;99.90
4520;DHT22;2272;49.226;8.108;2023-04-01T04:48:46;8.90;99.90
4520;DHT22;2272;49.226;8.108;2023-04-01T04:51:14;8.90;99.90
4520;DHT22;2272;49.226;8.108;2023-04-01T04:53:41;8.90;99.90
4520;DHT22;2272;49.226;8.108;2023-04-01T04:56:08;8.80;99.90
4520;DHT22;2272;49.226;8.108;2023-04-01T04:58:35;8.80;99.90
4520;DHT22;2272;49.226;8.108;2023-04-01T05:01:08;8.80;99.90
4520;DHT22;2272;49.226;8.108;2023-04-01T05:03:36;8.70;99.90
4520;DHT22;2272;49.226;8.108;2023-04-01T05:06:03;8.70;99.90
4520;DHT22;2272;49.226;8.108;2023-04-01T05:08:29;8.70;99.90
4520;DHT22;2272;49.226;8.108;2023-04-01T05:10:56;8.60;99.90
4520;DHT22;2272;49.226;8.108;2023-04-01T05:13:23;8.60;99.90
4520;DHT22;2272;49.226;8.108;2023-04-01T05:15:50;8.60;99.90
4520;DHT22;2272;49.226;8.108;2023-04-01T05:18:18;8.60;99.90
4520;DHT22;2272;49.226;8.108;2023-04-01T05:20:48;8.60;99.90
4520;DHT22;2272;49.226;8.108;2023-04-01T05:23:16;8.60;99.90
4520;DHT22;2272;49.226;8.108;2023-04-01T05:25:43;8.60;99.90
4520;DHT22;2272;49.226;8.108;2023-04-01T05:28:10;8.60;99.90
4520;DHT22;2272;49.226;8.108;2023-04-01T05:30:39;8.60;99.90
4520;DHT22;2272;49.226;8.108;2023-04-01T05:33:07;8.60;99.90
4520;DHT22;2272;49.226;8.108;2023-04-01T05:35:35;8.70;99.90
4520;DHT22;2272;49.226;8.108;2023-04-01T05:38:02;8.70;99.90
4520;DHT22;2272;49.226;8.108;2023-04-01T05:40:30;8.70;99.90
4520;DHT22;2272;49.226;8.108;2023-04-01T05:42:57;8.70;99.90
4520;DHT22;2272;49.226;8.108;2023-04-01T05:45:24;8.70;99.90
4520;DHT22;2272;49.226;8.108;2023-04-01T05:47:51;8.70;99.90
4520;DHT22;2272;49.226;8.108;2023-04-01T05:50:18;8.70;99.90
4520;DHT22;2272;49.226;8.108;2023-04-01T05:52:46;8.70;99.90
4520;DHT22;2272;49.226;8.108;2023-04-01T05:55:12;8.70;99.90
4520;DHT22;2272;49.226;8.108;2023-04-01T05:57:39;8.70;99.90
4520;DHT22;2272;49.226;8.108;2023-04-01T06:00:07;8.70;99.90
4520;DHT22;2272;49.226;8.108;2023-04-01T06:02:34;8.70;99.90
4520;DHT22;2272;49.226;8.108;2023-04-01T06:05:12;8.70;99.90
4520;DHT22;2272;49.226;8.108;2023-04-01T06:07:39;8.80;99.90
4520;DHT22;2272;49.226;8.108;2023-04-01T06:10:13;8.80;99.90
4520;DHT22;2272;49.226;8.108;2023-04-01T06:12:48;8.80;99.90
4520;DHT22;2272;49.226;8.108;2023-04-01T06:15:25;8.80;99.90
4520;DHT22;2272;49.226;8.108;2023-04-01T06:18:31;8.80;99.90
4520;DHT22;2272;49.226;8.108;2023-04-01T06:21:07;8.80;99.90
4520;DHT22;2272;49.226;8.108;2023-04-01T06:23:45;8.90;99.90
4520;DHT22;2272;49.226;8.108;2023-04-01T06:26:31;8.90;99.90
4520;DHT22;2272;49.226;8.108;2023-04-01T06:29:33;8.90;99.90
4520;DHT22;2272;49.226;8.108;2023-04-01T06:32:17;8.90;99.90
4520;DHT22;2272;49.226;8.108;2023-04-01T06:35:02;8.90;99.90
4520;DHT22;2272;49.226;8.108;2023-04-01T06:37:50;9.00;99.90
4520;DHT22;2272;49.226;8.108;2023-04-01T06:40:40;9.00;99.90
4520;DHT22;2272;49.226;8.108;2023-04-01T06:43:16;9.00;99.90
4520;DHT22;2272;49.226;8.108;2023-04-01T06:45:48;9.00;99.90
4520;DHT22;2272;49.226;8.108;2023-04-01T06:48:35;9.00;99.90
4520;DHT22;2272;49.226;8.108;2023-04-01T06:51:12;9.00;99.90
4520;DHT22;2272;49.226;8.108;2023-04-01T06:53:51;9.10;99.90
4520;DHT22;2272;49.226;8.108;2023-04-01T06:56:22;9.10;99.90
4520;DHT22;2272;49.226;8.108;2023-04-01T06:58:55;9.20;99.90
4520;DHT22;2272;49.226;8.108;2023-04-01T07:01:28;9.30;99.90
4520;DHT22;2272;49.226;8.108;2023-04-01T07:03:58;9.30;99.90
4520;DHT22;2272;49.226;8.108;2023-04-01T07:06:30;9.30;99.90
4520;DHT22;2272;49.226;8.108;2023-04-01T07:08:59;9.30;99.90
4520;DHT22;2272;49.226;8.108;2023-04-01T07:11:30;9.30;99.90
4520;DHT22;2272;49.226;8.108;2023-04-01T07:14:02;9.20;99.90
4520;DHT22;2272;49.226;8.108;2023-04-01T07:16:31;9.10;99.90
4520;DHT22;2272;49.226;8.108;2023-04-01T07:19:02;9.10;99.90
4520;DHT22;2272;49.226;8.108;2023-04-01T07:21:35;9.10;99.90
4520;DHT22;2272;49.226;8.108;2023-04-01T07:24:09;9.10;99.90
4520;DHT22;2272;49.226;8.108;2023-04-01T07:26:43;9.10;99.90
4520;DHT22;2272;49.226;8.108;2023-04-01T07:29:14;9.10;99.90
4520;DHT22;2272;49.226;8.108;2023-04-01T07:32:06;9.20;99.90
4520;DHT22;2272;49.226;8.108;2023-04-01T07:34:38;9.30;99.90
4520;DHT22;2272;49.226;8.108;2023-04-01T07:37:12;9.50;99.90
4520;DHT22;2272;49.226;8.108;2023-04-01T07:39:47;9.60;99.90
4520;DHT22;2272;49.226;8.108;2023-04-01T07:42:24;9.60;99.90
4520;DHT22;2272;49.226;8.108;2023-04-01T07:45:00;9.50;99.90
4520;DHT22;2272;49.226;8.108;2023-04-01T07:47:39;9.50;99.90
4520;DHT22;2272;49.226;8.108;2023-04-01T07:50:17;9.50;99.90
4520;DHT22;2272;49.226;8.108;2023-04-01T07:52:55;9.40;99.90
4520;DHT22;2272;49.226;8.108;2023-04-01T07:55:30;9.40;99.90
4520;DHT22;2272;49.226;8.108;2023-04-01T07:58:04;9.50;99.90
4520;DHT22;2272;49.226;8.108;2023-04-01T08:00:42;9.60;99.90
4520;DHT22;2272;49.226;8.108;2023-04-01T08:06:10;10.00;99.90
4520;DHT22;2272;49.226;8.108;2023-04-01T08:08:47;10.10;99.90
4520;DHT22;2272;49.226;8.108;2023-04-01T08:11:28;10.20;99.90
4520;DHT22;2272;49.226;8.108;2023-04-01T08:14:04;10.40;99.90
4520;DHT22;2272;49.226;8.108;2023-04-01T08:16:37;10.50;99.90
4520;DHT22;2272;49.226;8.108;2023-04-01T08:19:15;10.50;99.90
4520;DHT22;2272;49.226;8.108;2023-04-01T08:21:48;10.50;99.90
4520;DHT22;2272;49.226;8.108;2023-04-01T08:24:22;10.40;99.90
4520;DHT22;2272;49.226;8.108;2023-04-01T08:26:54;10.30;99.90
4520;DHT22;2272;49.226;8.108;2023-04-01T08:29:24;10.30;99.90
4520;DHT22;2272;49.226;8.108;2023-04-01T08:32:00;10.30;99.90
4520;DHT22;2272;49.226;8.108;2023-04-01T08:34:34;10.40;99.90
4520;DHT22;2272;49.226;8.108;2023-04-01T08:37:04;10.40;99.90
4520;DHT22;2272;49.226;8.108;2023-04-01T08:39:35;10.40;99.90
4520;DHT22;2272;49.226;8.108;2023-04-01T08:42:30;10.50;99.90
4520;DHT22;2272;49.226;8.108;2023-04-01T08:45:07;10.70;99.90
4520;DHT22;2272;49.226;8.108;2023-04-01T08:47:52;10.80;99.90
4520;DHT22;2272;49.226;8.108;2023-04-01T08:50:36;10.80;99.90
4520;DHT22;2272;49.226;8.108;2023-04-01T08:53:15;10.80;99.90
4520;DHT22;2272;49.226;8.108;2023-04-01T08:56:01;10.80;99.90
4520;DHT22;2272;49.226;8.108;2023-04-01T08:58:47;10.90;99.90
4520;DHT22;2272;49.226;8.108;2023-04-01T09:01:26;11.00;99.90
4520;DHT22;2272;49.226;8.108;2023-04-01T09:04:13;11.10;99.90
4520;DHT22;2272;49.226;8.108;2023-04-01T09:06:59;11.20;99.90
4520;DHT22;2272;49.226;8.108;2023-04-01T09:09:52;11.40;99.90
4520;DHT22;2272;49.226;8.108;2023-04-01T09:12:44;11.60;99.90
4520;DHT22;2272;49.226;8.108;2023-04-01T09:18:45;11.60;99.90
4520;DHT22;2272;49.226;8.108;2023-04-01T09:21:42;11.60;99.90
4520;DHT22;2272;49.226;8.108;2023-04-01T09:24:35;11.50;99.90
4520;DHT22;2272;49.226;8.108;2023-04-01T09:27:13;11.50;99.90
4520;DHT22;2272;49.226;8.108;2023-04-01T09:30:02;11.70;99.90
4520;DHT22;2272;49.226;8.108;2023-04-01T09:32:51;12.00;99.90
4520;DHT22;2272;49.226;8.108;2023-04-01T09:35:23;12.10;99.90
4520;DHT22;2272;49.226;8.108;2023-04-01T09:37:58;12.20;99.90
4520;DHT22;2272;49.226;8.108;2023-04-01T09:40:37;12.20;99.90
4520;DHT22;2272;49.226;8.108;2023-04-01T09:43:27;12.20;99.90
4520;DHT22;2272;49.226;8.108;2023-04-01T09:46:11;12.10;99.90
4520;DHT22;2272;49.226;8.108;2023-04-01T09:49:22;12.10;99.90
4520;DHT22;2272;49.226;8.108;2023-04-01T09:52:06;12.10;99.90
4520;DHT22;2272;49.226;8.108;2023-04-01T09:54:49;12.20;99.90
4520;DHT22;2272;49.226;8.108;2023-04-01T09:58:07;12.30;99.90
4520;DHT22;2272;49.226;8.108;2023-04-01T10:06:58;12.30;99.90
4520;DHT22;2272;49.226;8.108;2023-04-01T10:12:56;12.40;99.90
4520;DHT22;2272;49.226;8.108;2023-04-01T10:15:41;12.40;99.90
4520;DHT22;2272;49.226;8.108;2023-04-01T10:18:45;12.50;99.90
4520;DHT22;2272;49.226;8.108;2023-04-01T10:21:51;12.50;99.90
4520;DHT22;2272;49.226;8.108;2023-04-01T10:25:02;12.60;99.90
4520;DHT22;2272;49.226;8.108;2023-04-01T10:27:59;12.70;99.90
4520;DHT22;2272;49.226;8.108;2023-04-01T10:30:56;12.70;99.90
4520;DHT22;2272;49.226;8.108;2023-04-01T10:33:47;12.70;99.90
4520;DHT22;2272;49.226;8.108;2023-04-01T10:36:41;12.60;99.90
4520;DHT22;2272;49.226;8.108;2023-04-01T10:39:31;12.60;99.90
4520;DHT22;2272;49.226;8.108;2023-04-01T10:48:49;12.80;99.90
4520;DHT22;2272;49.226;8.108;2023-04-01T10:51:40;12.90;99.90
4520;DHT22;2272;49.226;8.108;2023-04-01T10:54:40;13.10;99.90
4520;DHT22;2272;49.226;8.108;2023-04-01T10:57:23;13.20;99.90
4520;DHT22;2272;49.226;8.108;2023-04-01T11:00:16;13.30;99.90
4520;DHT22;2272;49.226;8.108;2023-04-01T11:03:11;13.30;99.90
4520;DHT22;2272;49.226;8.108;2023-04-01T11:06:18;13.20;99.90
4520;DHT22;2272;49.226;8.108;2023-04-01T11:09:06;13.20;99.90
4520;DHT22;2272;49.226;8.108;2023-04-01T11:12:08;13.30;99.90
4520;DHT22;2272;49.226;8.108;2023-04-01T11:15:02;13.20;99.90
4520;DHT22;2272;49.226;8.108;2023-04-01T11:18:02;13.40;99.90
4520;DHT22;2272;49.226;8.108;2023-04-01T11:20:56;13.40;99.90
4520;DHT22;2272;49.226;8.108;2023-04-01T11:23:42;13.30;99.90
4520;DHT22;2272;49.226;8.108;2023-04-01T11:26:15;13.10;99.90
4520;DHT22;2272;49.226;8.108;2023-04-01T11:29:24;12.90;99.90
4520;DHT22;2272;49.226;8.108;2023-04-01T11:32:01;12.80;99.90
4520;DHT22;2272;49.226;8.108;2023-04-01T11:34:50;12.70;99.90
4520;DHT22;2272;49.226;8.108;2023-04-01T11:37:31;12.80;99.90
4520;DHT22;2272;49.226;8.108;2023-04-01T11:40:11;13.20;99.90
4520;DHT22;2272;49.226;8.108;2023-04-01T11:42:45;13.50;99.90
4520;DHT22;2272;49.226;8.108;2023-04-01T11:45:25;13.70;99.90
4520;DHT22;2272;49.226;8.108;2023-04-01T11:48:13;13.80;99.90
4520;DHT22;2272;49.226;8.108;2023-04-01T11:50:55;14.10;99.90
4520;DHT22;2272;49.226;8.108;2023-04-01T11:53:31;14.30;99.90
4520;DHT22;2272;49.226;8.108;2023-04-01T12:02:10;14.20;99.90
4520;DHT22;2272;49.226;8.108;2023-04-01T12:05:03;14.20;99.90
4520;DHT22;2272;49.226;8.108;2023-04-01T12:07:53;14.10;99.90
4520;DHT22;2272;49.226;8.108;2023-04-01T12:10:26;14.20;99.90
4520;DHT22;2272;49.226;8.108;2023-04-01T12:13:07;14.20;99.90
4520;DHT22;2272;49.226;8.108;2023-04-01T12:15:55;14.00;99.90
4520;DHT22;2272;49.226;8.108;2023-04-01T12:18:31;14.00;99.90
4520;DHT22;2272;49.226;8.108;2023-04-01T12:21:07;14.30;99.90
4520;DHT22;2272;49.226;8.108;2023-04-01T12:23:51;14.50;99.90
4520;DHT22;2272;49.226;8.108;2023-04-01T12:26:42;14.70;99.90
4520;DHT22;2272;49.226;8.108;2023-04-01T12:32:29;14.80;99.90
4520;DHT22;2272;49.226;8.108;2023-04-01T12:35:12;14.70;99.90
4520;DHT22;2272;49.226;8.108;2023-04-01T12:37:49;14.60;99.90
4520;DHT22;2272;49.226;8.108;2023-04-01T12:40:49;14.50;99.90
4520;DHT22;2272;49.226;8.108;2023-04-01T12:46:26;14.00;99.90
4520;DHT22;2272;49.226;8.108;2023-04-01T12:49:09;13.90;99.90
4520;DHT22;2272;49.226;8.108;2023-04-01T12:52:05;13.90;99.90
4520;DHT22;2272;49.226;8.108;2023-04-01T12:55:00;14.20;99.90
4520;DHT22;2272;49.226;8.108;2023-04-01T13:03:44;15.40;99.90
4520;DHT22;2272;49.226;8.108;2023-04-01T13:06:23;15.20;99.90
4520;DHT22;2272;49.226;8.108;2023-04-01T13:08:57;15.10;99.90
4520;DHT22;2272;49.226;8.108;2023-04-01T13:11:36;15.00;99.90
4520;DHT22;2272;49.226;8.108;2023-04-01T13:17:05;14.90;99.90
4520;DHT22;2272;49.226;8.108;2023-04-01T13:19:40;14.60;99.90
4520;DHT22;2272;49.226;8.108;2023-04-01T13:22:16;14.50;99.90
4520;DHT22;2272;49.226;8.108;2023-04-01T13:24:51;14.60;99.90
4520;DHT22;2272;49.226;8.108;2023-04-01T13:27:27;14.50;99.90
4520;DHT22;2272;49.226;8.108;2023-04-01T13:30:03;14.40;99.90
4520;DHT22;2272;49.226;8.108;2023-04-01T13:32:44;14.40;99.90
4520;DHT22;2272;49.226;8.108;2023-04-01T13:35:23;14.50;99.90
4520;DHT22;2272;49.226;8.108;2023-04-01T13:38:00;14.40;99.90
4520;DHT22;2272;49.226;8.108;2023-04-01T13:40:36;14.30;99.90
4520;DHT22;2272;49.226;8.108;2023-04-01T13:43:12;13.90;99.90
4520;DHT22;2272;49.226;8.108;2023-04-01T13:45:55;13.60;99.90
4520;DHT22;2272;49.226;8.108;2023-04-01T13:48:45;13.40;99.90
4520;DHT22;2272;49.226;8.108;2023-04-01T13:51:57;13.30;99.90
4520;DHT22;2272;49.226;8.108;2023-04-01T13:54:40;13.10;99.90
4520;DHT22;2272;49.226;8.108;2023-04-01T13:57:26;13.00;99.90
4520;DHT22;2272;49.226;8.108;2023-04-01T14:00:03;13.00;99.90
4520;DHT22;2272;49.226;8.108;2023-04-01T14:05:50;13.20;99.90
4520;DHT22;2272;49.226;8.108;2023-04-01T14:08:45;13.30;99.90
4520;DHT22;2272;49.226;8.108;2023-04-01T14:11:25;13.10;99.90
4520;DHT22;2272;49.226;8.108;2023-04-01T14:14:01;13.10;99.90
4520;DHT22;2272;49.226;8.108;2023-04-01T14:20:24;13.30;99.90
4520;DHT22;2272;49.226;8.108;2023-04-01T14:29:01;12.90;99.90
4520;DHT22;2272;49.226;8.108;2023-04-01T14:31:39;12.40;99.90
4520;DHT22;2272;49.226;8.108;2023-04-01T14:34:21;12.20;99.90
4520;DHT22;2272;49.226;8.108;2023-04-01T14:37:01;12.20;99.90
4520;DHT22;2272;49.226;8.108;2023-04-01T14:39:42;12.20;99.90
4520;DHT22;2272;49.226;8.108;2023-04-01T14:42:23;12.10;99.90
4520;DHT22;2272;49.226;8.108;2023-04-01T14:45:12;11.90;99.90
4520;DHT22;2272;49.226;8.108;2023-04-01T14:47:50;11.90;99.90
4520;DHT22;2272;49.226;8.108;2023-04-01T14:50:21;12.20;99.90
4520;DHT22;2272;49.226;8.108;2023-04-01T14:52:55;12.50;99.90
4520;DHT22;2272;49.226;8.108;2023-04-01T14:55:36;12.70;99.90
4520;DHT22;2272;49.226;8.108;2023-04-01T14:58:12;12.80;99.90
4520;DHT22;2272;49.226;8.108;2023-04-01T15:00:53;12.90;99.90
4520;DHT22;2272;49.226;8.108;2023-04-01T15:03:26;13.00;99.90
4520;DHT22;2272;49.226;8.108;2023-04-01T15:06:27;13.00;99.90
4520;DHT22;2272;49.226;8.108;2023-04-01T15:09:02;13.00;99.90
4520;DHT22;2272;49.226;8.108;2023-04-01T15:11:47;13.00;99.90
4520;DHT22;2272;49.226;8.108;2023-04-01T15:14:30;13.00;99.90
4520;DHT22;2272;49.226;8.108;2023-04-01T15:17:22;12.70;99.90
4520;DHT22;2272;49.226;8.108;2023-04-01T15:20:04;12.40;99.90
4520;DHT22;2272;49.226;8.108;2023-04-01T15:22:47;12.20;99.90
4520;DHT22;2272;49.226;8.108;2023-04-01T15:25:27;12.20;99.90
4520;DHT22;2272;49.226;8.108;2023-04-01T15:28:02;12.20;99.90
4520;DHT22;2272;49.226;8.108;2023-04-01T15:30:33;12.30;99.90
4520;DHT22;2272;49.226;8.108;2023-04-01T15:33:27;12.30;99.90
4520;DHT22;2272;49.226;8.108;2023-04-01T15:36:02;12.30;99.90
4520;DHT22;2272;49.226;8.108;2023-04-01T15:38:36;12.20;99.90
4520;DHT22;2272;49.226;8.108;2023-04-01T15:41:13;12.00;99.90
4520;DHT22;2272;49.226;8.108;2023-04-01T15:43:42;11.70;99.90
4520;DHT22;2272;49.226;8.108;2023-04-01T15:46:21;11.60;99.90
4520;DHT22;2272;49.226;8.108;2023-04-01T15:49:05;11.40;99.90
4520;DHT22;2272;49.226;8.108;2023-04-01T15:51:47;11.30;99.90
4520;DHT22;2272;49.226;8.108;2023-04-01T15:57:18;11.40;99.90
4520;DHT22;2272;49.226;8.108;2023-04-01T16:00:10;11.50;99.90
4520;DHT22;2272;49.226;8.108;2023-04-01T16:02:44;11.50;99.90
4520;DHT22;2272;49.226;8.108;2023-04-01T16:05:30;11.40;99.90
4520;DHT22;2272;49.226;8.108;2023-04-01T16:08:12;11.20;99.90
4520;DHT22;2272;49.226;8.108;2023-04-01T16:10:52;11.10;99.90
4520;DHT22;2272;49.226;8.108;2023-04-01T16:13:28;11.00;99.90
4520;DHT22;2272;49.226;8.108;2023-04-01T16:16:04;11.10;99.90
4520;DHT22;2272;49.226;8.108;2023-04-01T16:18:51;11.00;99.90
4520;DHT22;2272;49.226;8.108;2023-04-01T16:21:34;11.00;99.90
4520;DHT22;2272;49.226;8.108;2023-04-01T16:24:08;11.00;99.90
4520;DHT22;2272;49.226;8.108;2023-04-01T16:26:39;11.00;99.90
4520;DHT22;2272;49.226;8.108;2023-04-01T16:29:16;11.00;99.90
4520;DHT22;2272;49.226;8.108;2023-04-01T16:31:48;10.90;99.90
4520;DHT22;2272;49.226;8.108;2023-04-01T16:34:19;10.90;99.90
4520;DHT22;2272;49.226;8.108;2023-04-01T16:36:51;10.90;99.90
4520;DHT22;2272;49.226;8.108;2023-04-01T16:39:33;10.90;99.90
4520;DHT22;2272;49.226;8.108;2023-04-01T16:42:24;10.80;99.90
4520;DHT22;2272;49.226;8.108;2023-04-01T16:44:57;10.80;99.90
4520;DHT22;2272;49.226;8.108;2023-04-01T16:47:30;10.80;99.90
4520;DHT22;2272;49.226;8.108;2023-04-01T16:50:00;10.80;99.90
4520;DHT22;2272;49.226;8.108;2023-04-01T16:52:53;10.80;99.90
4520;DHT22;2272;49.226;8.108;2023-04-01T16:55:34;10.80;99.90
4520;DHT22;2272;49.226;8.108;2023-04-01T16:58:01;10.80;99.90
4520;DHT22;2272;49.226;8.108;2023-04-01T17:00:36;10.80;99.90
4520;DHT22;2272;49.226;8.108;2023-04-01T17:03:11;10.80;99.90
4520;DHT22;2272;49.226;8.108;2023-04-01T17:05:49;10.70;99.90
4520;DHT22;2272;49.226;8.108;2023-04-01T17:08:30;10.80;99.90
4520;DHT22;2272;49.226;8.108;2023-04-01T17:11:07;10.70;99.90
4520;DHT22;2272;49.226;8.108;2023-04-01T17:13:41;10.70;99.90
4520;DHT22;2272;49.226;8.108;2023-04-01T17:16:32;10.50;99.90
4520;DHT22;2272;49.226;8.108;2023-04-01T17:19:13;10.50;99.90
4520;DHT22;2272;49.226;8.108;2023-04-01T17:21:52;10.40;99.90
4520;DHT22;2272;49.226;8.108;2023-04-01T17:24:32;10.40;99.90
4520;DHT22;2272;49.226;8.108;2023-04-01T17:27:16;10.30;99.90
4520;DHT22;2272;49.226;8.108;2023-04-01T17:32:53;10.10;99.90
4520;DHT22;2272;49.226;8.108;2023-04-01T17:35:27;10.00;99.90
4520;DHT22;2272;49.226;8.108;2023-04-01T17:38:04;9.90;99.90
4520;DHT22;2272;49.226;8.108;2023-04-01T17:40:42;9.90;99.90
4520;DHT22;2272;49.226;8.108;2023-04-01T17:43:18;9.80;99.90
4520;DHT22;2272;49.226;8.108;2023-04-01T17:45:53;9.70;99.90
4520;DHT22;2272;49.226;8.108;2023-04-01T17:48:26;9.50;99.90
4520;DHT22;2272;49.226;8.108;2023-04-01T17:51:11;9.30;99.90
4520;DHT22;2272;49.226;8.108;2023-04-01T17:56:19;9.10;99.90
4520;DHT22;2272;49.226;8.108;2023-04-01T17:58:58;9.00;99.90
4520;DHT22;2272;49.226;8.108;2023-04-01T18:01:37;8.90;99.90
4520;DHT22;2272;49.226;8.108;2023-04-01T18:04:15;8.80;99.90
4520;DHT22;2272;49.226;8.108;2023-04-01T18:07:03;8.80;99.90
4520;DHT22;2272;49.226;8.108;2023-04-01T18:09:42;8.80;99.90
4520;DHT22;2272;49.226;8.108;2023-04-01T18:12:17;8.70;99.90
4520;DHT22;2272;49.226;8.108;2023-04-01T18:15:03;8.60;99.90